Jamestown, Canada
Current Conditions -  °F | °C
As of 12:00 AM on Tuesday 23 Dec 2014 (Local Time) from CYQX Reporting Station
Overcast Overcast  
Wind Chill: 23°   Ceiling: 1000
Heat Index: 23°   Visibility: 15mi
Dew Point: 19°   Wind: 3mph
Humidity: 86%   Direction: 160°SSE
Pressure: 30.45"   Gusts: NA
Location:  48.43°N, 53.8°W
Report Text: CYQX 230300Z 16003KT 130V210 15SM OVC010 M05/M07 A3045 RMK SC8 SLP320
Loading
Personal Weather Stations






























Interactive Weather Map New forecast layout! Learn more

10-Day Weather Forecast

Advertisements
Track Severe Weather on mobile